Airfield :
LOGIN :

Register | Disclaimer

   EN    FR    IT 

 










Legend :    VFR   Marginal VFR   IFR   Intensive IFR   Very Intensive IFR
Visi :
Ceiling :
>= 8 km
>= 3000ft
5 to 8 km
1000 to 3000 ft
1500m to 5 km
500 to 1000 ft
800 to 1500m
200 to 500 ft
< 800m
< 200 ft
Symbols :   Thunderstorms  Fog  Heavy snow  Heavy precipitations  Wind > 20 kt
SIGMETs :     Misc.  Thunderstorms  Icing  Turbulence  Mountain Waves  Volcanic Ashes






- Airport Elevation : 499 ft
- IATA code : TLS


LFBO - Toulouse / Blagnac

CURRENT METAR :
  • 052100Z AUTO 29009KT 9999 OVC048 08/03 Q1035 NOSIG

EXPIRED METARs :
  • 052030Z AUTO 30009KT 260V320 9999 OVC048 08/04 Q1035 NOSIG
  • 052000Z AUTO 29010KT 9999 OVC048 08/05 Q1035 NOSIG
  • 051930Z AUTO 28010KT 9999 OVC047 08/05 Q1036 NOSIG
  • 051900Z AUTO 27010KT 9999 OVC045 09/05 Q1036 NOSIG

TAF TAF LFBO
Valid from the 05 at 18:00 until the 07 at 00:00 UTC


051700Z 0518/0624 28010KT 9999 BKN040
BECMG 0602/0604 VRB03KT CAVOK
PROB30
TEMPO 0605/0611 BKN013
ATIS : +33 5 62 74 66 36



MET'MAP, your aeronautical weather chart ! - Copyright ORBIFLY December 2007 - Disclaimer

ORBIFLY MET'MAP TEAM :

Programming & Development : Alexandra Zaïnal
Original concept : Baudouin d'Aumeries
Technical & hardware support : Manuel Goepfert
Assistance : Marc-Olivier Méhu




SOURCES & CREDITS :

   NOAA